sensor_id;sensor_type;location;lat;lon;timestamp;P1;durP1;ratioP1;P2;durP2;ratioP2
31347;SDS011;21711;49.708;18.568;2024-03-02T00:01:22;18.95;;;8.57;;
31347;SDS011;21711;49.708;18.568;2024-03-02T00:03:50;22.10;;;10.88;;
31347;SDS011;21711;49.708;18.568;2024-03-02T00:06:19;20.27;;;11.30;;
31347;SDS011;21711;49.708;18.568;2024-03-02T00:08:48;21.98;;;9.82;;
31347;SDS011;21711;49.708;18.568;2024-03-02T00:11:17;19.33;;;10.30;;
31347;SDS011;21711;49.708;18.568;2024-03-02T00:13:45;17.10;;;10.57;;
31347;SDS011;21711;49.708;18.568;2024-03-02T00:16:13;20.70;;;9.57;;
31347;SDS011;21711;49.708;18.568;2024-03-02T00:18:42;21.05;;;9.73;;
31347;SDS011;21711;49.708;18.568;2024-03-02T00:21:10;18.55;;;9.02;;
31347;SDS011;21711;49.708;18.568;2024-03-02T00:23:39;18.73;;;8.60;;
31347;SDS011;21711;49.708;18.568;2024-03-02T00:26:08;25.15;;;10.95;;
31347;SDS011;21711;49.708;18.568;2024-03-02T00:28:39;19.63;;;10.20;;
31347;SDS011;21711;49.708;18.568;2024-03-02T00:33:40;21.30;;;9.75;;
31347;SDS011;21711;49.708;18.568;2024-03-02T00:36:16;20.90;;;9.85;;
31347;SDS011;21711;49.708;18.568;2024-03-02T00:38:51;19.88;;;9.63;;
31347;SDS011;21711;49.708;18.568;2024-03-02T00:41:29;19.60;;;9.70;;
31347;SDS011;21711;49.708;18.568;2024-03-02T00:46:33;13.98;;;8.25;;
31347;SDS011;21711;49.708;18.568;2024-03-02T00:49:03;14.35;;;8.68;;
31347;SDS011;21711;49.708;18.568;2024-03-02T00:51:38;15.43;;;8.68;;
31347;SDS011;21711;49.708;18.568;2024-03-02T00:54:07;19.02;;;9.77;;
31347;SDS011;21711;49.708;18.568;2024-03-02T00:56:35;23.75;;;10.52;;
31347;SDS011;21711;49.708;18.568;2024-03-02T00:59:03;22.35;;;12.07;;
31347;SDS011;21711;49.708;18.568;2024-03-02T01:01:30;29.33;;;13.30;;
31347;SDS011;21711;49.708;18.568;2024-03-02T01:03:58;30.90;;;12.63;;
31347;SDS011;21711;49.708;18.568;2024-03-02T01:06:25;39.83;;;16.00;;
31347;SDS011;21711;49.708;18.568;2024-03-02T01:08:53;33.38;;;14.13;;
31347;SDS011;21711;49.708;18.568;2024-03-02T01:11:20;25.67;;;12.25;;
31347;SDS011;21711;49.708;18.568;2024-03-02T01:13:51;31.90;;;13.40;;
31347;SDS011;21711;49.708;18.568;2024-03-02T01:16:19;30.63;;;12.68;;
31347;SDS011;21711;49.708;18.568;2024-03-02T01:18:47;29.00;;;12.25;;
31347;SDS011;21711;49.708;18.568;2024-03-02T01:21:15;25.42;;;11.60;;
31347;SDS011;21711;49.708;18.568;2024-03-02T01:23:43;22.27;;;12.70;;
31347;SDS011;21711;49.708;18.568;2024-03-02T01:26:10;22.02;;;11.50;;
31347;SDS011;21711;49.708;18.568;2024-03-02T01:28:38;20.83;;;10.95;;
31347;SDS011;21711;49.708;18.568;2024-03-02T01:31:05;22.08;;;11.75;;
31347;SDS011;21711;49.708;18.568;2024-03-02T01:33:32;24.08;;;10.98;;
31347;SDS011;21711;49.708;18.568;2024-03-02T01:36:00;29.13;;;14.02;;
31347;SDS011;21711;49.708;18.568;2024-03-02T01:38:27;23.95;;;10.63;;
31347;SDS011;21711;49.708;18.568;2024-03-02T01:40:55;21.83;;;11.35;;
31347;SDS011;21711;49.708;18.568;2024-03-02T01:43:23;21.77;;;11.13;;
31347;SDS011;21711;49.708;18.568;2024-03-02T01:45:51;26.70;;;11.38;;
31347;SDS011;21711;49.708;18.568;2024-03-02T01:48:18;20.77;;;11.02;;
31347;SDS011;21711;49.708;18.568;2024-03-02T01:50:46;21.60;;;11.55;;
31347;SDS011;21711;49.708;18.568;2024-03-02T01:53:14;31.05;;;12.60;;
31347;SDS011;21711;49.708;18.568;2024-03-02T01:55:41;30.30;;;12.30;;
31347;SDS011;21711;49.708;18.568;2024-03-02T01:58:09;25.33;;;11.45;;
31347;SDS011;21711;49.708;18.568;2024-03-02T02:00:37;25.88;;;10.90;;
31347;SDS011;21711;49.708;18.568;2024-03-02T02:03:04;20.73;;;11.02;;
31347;SDS011;21711;49.708;18.568;2024-03-02T02:05:33;19.02;;;11.13;;
31347;SDS011;21711;49.708;18.568;2024-03-02T02:08:01;18.80;;;9.52;;
31347;SDS011;21711;49.708;18.568;2024-03-02T02:10:29;21.92;;;10.88;;
31347;SDS011;21711;49.708;18.568;2024-03-02T02:12:56;18.73;;;9.27;;
31347;SDS011;21711;49.708;18.568;2024-03-02T02:15:27;20.75;;;11.50;;
31347;SDS011;21711;49.708;18.568;2024-03-02T02:17:56;25.85;;;11.65;;
31347;SDS011;21711;49.708;18.568;2024-03-02T02:20:26;18.95;;;9.38;;
31347;SDS011;21711;49.708;18.568;2024-03-02T02:25:28;25.65;;;10.02;;
31347;SDS011;21711;49.708;18.568;2024-03-02T02:27:56;28.60;;;11.23;;
31347;SDS011;21711;49.708;18.568;2024-03-02T02:30:26;17.60;;;9.98;;
31347;SDS011;21711;49.708;18.568;2024-03-02T02:32:56;16.98;;;9.48;;
31347;SDS011;21711;49.708;18.568;2024-03-02T02:35:24;19.42;;;9.52;;
31347;SDS011;21711;49.708;18.568;2024-03-02T02:37:52;16.15;;;9.10;;
31347;SDS011;21711;49.708;18.568;2024-03-02T02:40:22;21.40;;;9.57;;
31347;SDS011;21711;49.708;18.568;2024-03-02T02:42:50;16.10;;;9.07;;
31347;SDS011;21711;49.708;18.568;2024-03-02T02:45:20;14.65;;;8.60;;
31347;SDS011;21711;49.708;18.568;2024-03-02T02:47:49;15.40;;;8.32;;
31347;SDS011;21711;49.708;18.568;2024-03-02T02:50:16;17.98;;;9.30;;
31347;SDS011;21711;49.708;18.568;2024-03-02T02:52:43;16.50;;;8.90;;
31347;SDS011;21711;49.708;18.568;2024-03-02T02:55:12;18.90;;;9.32;;
31347;SDS011;21711;49.708;18.568;2024-03-02T02:57:40;17.17;;;8.38;;
31347;SDS011;21711;49.708;18.568;2024-03-02T03:00:10;18.60;;;9.27;;
31347;SDS011;21711;49.708;18.568;2024-03-02T03:02:44;17.08;;;8.75;;
31347;SDS011;21711;49.708;18.568;2024-03-02T03:05:16;17.15;;;9.38;;
31347;SDS011;21711;49.708;18.568;2024-03-02T03:07:44;17.27;;;8.70;;
31347;SDS011;21711;49.708;18.568;2024-03-02T03:10:12;18.27;;;9.18;;
31347;SDS011;21711;49.708;18.568;2024-03-02T03:12:41;17.25;;;9.00;;
31347;SDS011;21711;49.708;18.568;2024-03-02T03:15:10;18.77;;;9.73;;
31347;SDS011;21711;49.708;18.568;2024-03-02T03:17:39;16.67;;;9.95;;
31347;SDS011;21711;49.708;18.568;2024-03-02T03:20:07;18.35;;;9.52;;
31347;SDS011;21711;49.708;18.568;2024-03-02T03:22:39;18.63;;;9.68;;
31347;SDS011;21711;49.708;18.568;2024-03-02T03:25:06;20.85;;;9.70;;
31347;SDS011;21711;49.708;18.568;2024-03-02T03:30:04;17.88;;;8.95;;
31347;SDS011;21711;49.708;18.568;2024-03-02T03:32:33;23.40;;;10.75;;
31347;SDS011;21711;49.708;18.568;2024-03-02T03:35:00;17.38;;;9.57;;
31347;SDS011;21711;49.708;18.568;2024-03-02T03:37:28;17.45;;;9.07;;
31347;SDS011;21711;49.708;18.568;2024-03-02T03:40:05;19.38;;;10.20;;
31347;SDS011;21711;49.708;18.568;2024-03-02T03:42:40;19.52;;;9.45;;
31347;SDS011;21711;49.708;18.568;2024-03-02T03:45:08;19.67;;;10.43;;
31347;SDS011;21711;49.708;18.568;2024-03-02T03:47:35;20.17;;;10.15;;
31347;SDS011;21711;49.708;18.568;2024-03-02T03:50:03;16.48;;;9.88;;
31347;SDS011;21711;49.708;18.568;2024-03-02T03:52:33;24.45;;;10.13;;
31347;SDS011;21711;49.708;18.568;2024-03-02T03:55:01;18.00;;;10.32;;
31347;SDS011;21711;49.708;18.568;2024-03-02T03:57:28;17.42;;;9.90;;
31347;SDS011;21711;49.708;18.568;2024-03-02T03:59:55;20.48;;;9.98;;
31347;SDS011;21711;49.708;18.568;2024-03-02T04:02:23;19.52;;;9.55;;
31347;SDS011;21711;49.708;18.568;2024-03-02T04:04:51;21.38;;;10.30;;
31347;SDS011;21711;49.708;18.568;2024-03-02T04:07:19;19.15;;;9.60;;
31347;SDS011;21711;49.708;18.568;2024-03-02T04:09:47;23.33;;;10.27;;
31347;SDS011;21711;49.708;18.568;2024-03-02T04:12:14;17.40;;;9.75;;
31347;SDS011;21711;49.708;18.568;2024-03-02T04:14:42;21.45;;;9.45;;
31347;SDS011;21711;49.708;18.568;2024-03-02T04:17:09;18.55;;;9.45;;
31347;SDS011;21711;49.708;18.568;2024-03-02T04:19:36;17.50;;;9.30;;
31347;SDS011;21711;49.708;18.568;2024-03-02T04:22:04;20.60;;;9.75;;
31347;SDS011;21711;49.708;18.568;2024-03-02T04:24:44;17.95;;;9.73;;
31347;SDS011;21711;49.708;18.568;2024-03-02T04:27:11;15.88;;;9.68;;
31347;SDS011;21711;49.708;18.568;2024-03-02T04:29:39;18.00;;;8.93;;
31347;SDS011;21711;49.708;18.568;2024-03-02T04:32:06;17.17;;;9.50;;
31347;SDS011;21711;49.708;18.568;2024-03-02T04:34:33;18.75;;;9.10;;
31347;SDS011;21711;49.708;18.568;2024-03-02T04:37:01;21.35;;;10.20;;
31347;SDS011;21711;49.708;18.568;2024-03-02T04:39:28;24.42;;;10.63;;
31347;SDS011;21711;49.708;18.568;2024-03-02T04:41:55;14.07;;;8.45;;
31347;SDS011;21711;49.708;18.568;2024-03-02T04:44:23;17.30;;;9.05;;
31347;SDS011;21711;49.708;18.568;2024-03-02T04:46:51;17.90;;;9.75;;
31347;SDS011;21711;49.708;18.568;2024-03-02T04:49:18;18.30;;;9.88;;
31347;SDS011;21711;49.708;18.568;2024-03-02T04:51:46;19.40;;;8.35;;
31347;SDS011;21711;49.708;18.568;2024-03-02T04:54:13;17.38;;;10.27;;
31347;SDS011;21711;49.708;18.568;2024-03-02T04:56:41;17.00;;;9.20;;
31347;SDS011;21711;49.708;18.568;2024-03-02T04:59:16;16.08;;;8.63;;
31347;SDS011;21711;49.708;18.568;2024-03-02T05:01:44;16.75;;;8.85;;
31347;SDS011;21711;49.708;18.568;2024-03-02T05:04:13;14.95;;;8.73;;
31347;SDS011;21711;49.708;18.568;2024-03-02T05:06:41;15.75;;;8.18;;
31347;SDS011;21711;49.708;18.568;2024-03-02T05:09:08;14.05;;;8.48;;
31347;SDS011;21711;49.708;18.568;2024-03-02T05:11:36;16.02;;;8.70;;
31347;SDS011;21711;49.708;18.568;2024-03-02T05:14:07;15.57;;;9.27;;
31347;SDS011;21711;49.708;18.568;2024-03-02T05:16:37;18.20;;;8.82;;
31347;SDS011;21711;49.708;18.568;2024-03-02T05:21:35;16.63;;;7.70;;
31347;SDS011;21711;49.708;18.568;2024-03-02T05:24:02;17.13;;;8.32;;
31347;SDS011;21711;49.708;18.568;2024-03-02T05:26:30;16.02;;;8.48;;
31347;SDS011;21711;49.708;18.568;2024-03-02T05:28:57;18.60;;;7.93;;
31347;SDS011;21711;49.708;18.568;2024-03-02T05:31:25;15.25;;;8.13;;
31347;SDS011;21711;49.708;18.568;2024-03-02T05:33:52;17.17;;;8.15;;
31347;SDS011;21711;49.708;18.568;2024-03-02T05:36:23;14.07;;;7.47;;
31347;SDS011;21711;49.708;18.568;2024-03-02T05:38:51;17.17;;;8.13;;
31347;SDS011;21711;49.708;18.568;2024-03-02T05:41:19;17.17;;;7.55;;
31347;SDS011;21711;49.708;18.568;2024-03-02T05:43:46;14.75;;;7.95;;
31347;SDS011;21711;49.708;18.568;2024-03-02T05:46:13;12.38;;;7.57;;
31347;SDS011;21711;49.708;18.568;2024-03-02T05:48:41;13.20;;;7.28;;
31347;SDS011;21711;49.708;18.568;2024-03-02T05:51:08;20.38;;;7.32;;
31347;SDS011;21711;49.708;18.568;2024-03-02T05:53:36;14.15;;;6.20;;
31347;SDS011;21711;49.708;18.568;2024-03-02T05:56:05;15.95;;;7.28;;
31347;SDS011;21711;49.708;18.568;2024-03-02T05:58:33;14.60;;;6.93;;
31347;SDS011;21711;49.708;18.568;2024-03-02T06:01:14;17.10;;;7.72;;
31347;SDS011;21711;49.708;18.568;2024-03-02T06:03:42;12.20;;;6.88;;
31347;SDS011;21711;49.708;18.568;2024-03-02T06:06:09;13.88;;;7.00;;
31347;SDS011;21711;49.708;18.568;2024-03-02T06:08:37;12.82;;;7.15;;
31347;SDS011;21711;49.708;18.568;2024-03-02T06:11:05;13.93;;;7.00;;
31347;SDS011;21711;49.708;18.568;2024-03-02T06:13:32;11.57;;;6.75;;
31347;SDS011;21711;49.708;18.568;2024-03-02T06:16:00;12.15;;;6.18;;
31347;SDS011;21711;49.708;18.568;2024-03-02T06:18:27;18.05;;;7.72;;
31347;SDS011;21711;49.708;18.568;2024-03-02T06:20:55;13.13;;;7.22;;
31347;SDS011;21711;49.708;18.568;2024-03-02T06:23:22;11.70;;;6.55;;
31347;SDS011;21711;49.708;18.568;2024-03-02T06:25:49;20.70;;;7.57;;
31347;SDS011;21711;49.708;18.568;2024-03-02T06:28:17;11.75;;;6.70;;
31347;SDS011;21711;49.708;18.568;2024-03-02T06:30:45;13.00;;;7.85;;
31347;SDS011;21711;49.708;18.568;2024-03-02T06:33:12;10.50;;;6.22;;
31347;SDS011;21711;49.708;18.568;2024-03-02T06:35:40;11.82;;;6.57;;
31347;SDS011;21711;49.708;18.568;2024-03-02T06:38:07;12.45;;;6.20;;
31347;SDS011;21711;49.708;18.568;2024-03-02T06:40:35;17.73;;;7.28;;
31347;SDS011;21711;49.708;18.568;2024-03-02T06:43:04;13.75;;;6.97;;
31347;SDS011;21711;49.708;18.568;2024-03-02T06:45:32;16.05;;;6.78;;
31347;SDS011;21711;49.708;18.568;2024-03-02T06:48:01;11.93;;;6.78;;
31347;SDS011;21711;49.708;18.568;2024-03-02T06:50:28;15.55;;;7.25;;
31347;SDS011;21711;49.708;18.568;2024-03-02T06:52:56;18.27;;;8.18;;
31347;SDS011;21711;49.708;18.568;2024-03-02T06:55:24;14.57;;;7.97;;
31347;SDS011;21711;49.708;18.568;2024-03-02T06:57:52;12.50;;;7.55;;
31347;SDS011;21711;49.708;18.568;2024-03-02T07:00:19;18.55;;;7.30;;
31347;SDS011;21711;49.708;18.568;2024-03-02T07:02:47;12.82;;;7.05;;
31347;SDS011;21711;49.708;18.568;2024-03-02T07:05:14;13.02;;;7.05;;
31347;SDS011;21711;49.708;18.568;2024-03-02T07:07:42;11.48;;;7.13;;
31347;SDS011;21711;49.708;18.568;2024-03-02T07:10:09;13.88;;;6.82;;
31347;SDS011;21711;49.708;18.568;2024-03-02T07:12:37;20.42;;;7.72;;
31347;SDS011;21711;49.708;18.568;2024-03-02T07:15:05;10.32;;;6.25;;
31347;SDS011;21711;49.708;18.568;2024-03-02T07:17:33;15.05;;;7.20;;
31347;SDS011;21711;49.708;18.568;2024-03-02T07:20:00;9.75;;;6.32;;
31347;SDS011;21711;49.708;18.568;2024-03-02T07:22:28;12.52;;;7.32;;
31347;SDS011;21711;49.708;18.568;2024-03-02T07:24:56;21.00;;;7.00;;
31347;SDS011;21711;49.708;18.568;2024-03-02T07:27:23;13.38;;;7.35;;
31347;SDS011;21711;49.708;18.568;2024-03-02T07:29:51;14.50;;;7.10;;
31347;SDS011;21711;49.708;18.568;2024-03-02T07:32:18;17.02;;;7.13;;
31347;SDS011;21711;49.708;18.568;2024-03-02T07:34:46;19.50;;;8.45;;
31347;SDS011;21711;49.708;18.568;2024-03-02T07:37:13;11.18;;;6.40;;
31347;SDS011;21711;49.708;18.568;2024-03-02T07:39:41;16.65;;;6.95;;
31347;SDS011;21711;49.708;18.568;2024-03-02T07:42:08;11.68;;;6.47;;
31347;SDS011;21711;49.708;18.568;2024-03-02T07:44:36;19.55;;;7.07;;
31347;SDS011;21711;49.708;18.568;2024-03-02T07:47:06;17.33;;;6.55;;
31347;SDS011;21711;49.708;18.568;2024-03-02T07:49:33;16.15;;;8.05;;
31347;SDS011;21711;49.708;18.568;2024-03-02T07:52:01;13.20;;;6.38;;
31347;SDS011;21711;49.708;18.568;2024-03-02T07:54:29;11.23;;;6.20;;
31347;SDS011;21711;49.708;18.568;2024-03-02T07:56:57;14.52;;;7.28;;
31347;SDS011;21711;49.708;18.568;2024-03-02T07:59:25;15.43;;;6.45;;
31347;SDS011;21711;49.708;18.568;2024-03-02T08:01:53;13.07;;;6.88;;
31347;SDS011;21711;49.708;18.568;2024-03-02T08:04:22;16.55;;;7.05;;
31347;SDS011;21711;49.708;18.568;2024-03-02T08:06:49;13.23;;;6.60;;
31347;SDS011;21711;49.708;18.568;2024-03-02T08:09:17;13.98;;;7.13;;
31347;SDS011;21711;49.708;18.568;2024-03-02T08:11:44;13.80;;;7.18;;
31347;SDS011;21711;49.708;18.568;2024-03-02T08:14:12;21.60;;;7.78;;
31347;SDS011;21711;49.708;18.568;2024-03-02T08:16:39;14.95;;;7.40;;
31347;SDS011;21711;49.708;18.568;2024-03-02T08:19:07;12.82;;;6.45;;
31347;SDS011;21711;49.708;18.568;2024-03-02T08:21:36;11.52;;;7.10;;
31347;SDS011;21711;49.708;18.568;2024-03-02T08:24:03;15.90;;;7.63;;
31347;SDS011;21711;49.708;18.568;2024-03-02T08:26:31;16.92;;;7.88;;
31347;SDS011;21711;49.708;18.568;2024-03-02T08:28:59;13.70;;;7.22;;
31347;SDS011;21711;49.708;18.568;2024-03-02T08:31:28;14.73;;;8.02;;
31347;SDS011;21711;49.708;18.568;2024-03-02T08:33:56;14.88;;;7.53;;
31347;SDS011;21711;49.708;18.568;2024-03-02T08:36:25;13.88;;;7.95;;
31347;SDS011;21711;49.708;18.568;2024-03-02T08:38:53;13.75;;;7.72;;
31347;SDS011;21711;49.708;18.568;2024-03-02T08:41:20;14.48;;;7.72;;
31347;SDS011;21711;49.708;18.568;2024-03-02T08:43:48;14.10;;;7.00;;
31347;SDS011;21711;49.708;18.568;2024-03-02T08:46:15;11.23;;;6.95;;
31347;SDS011;21711;49.708;18.568;2024-03-02T08:48:43;17.27;;;7.47;;
31347;SDS011;21711;49.708;18.568;2024-03-02T08:51:10;14.55;;;7.75;;
31347;SDS011;21711;49.708;18.568;2024-03-02T08:53:38;12.48;;;7.57;;
31347;SDS011;21711;49.708;18.568;2024-03-02T08:56:06;18.27;;;7.82;;
31347;SDS011;21711;49.708;18.568;2024-03-02T08:58:33;17.48;;;8.05;;
31347;SDS011;21711;49.708;18.568;2024-03-02T09:01:01;19.52;;;7.60;;
31347;SDS011;21711;49.708;18.568;2024-03-02T09:03:29;13.02;;;6.82;;
31347;SDS011;21711;49.708;18.568;2024-03-02T09:08:27;16.90;;;7.95;;
31347;SDS011;21711;49.708;18.568;2024-03-02T09:10:54;13.65;;;7.22;;
31347;SDS011;21711;49.708;18.568;2024-03-02T09:13:22;15.02;;;7.53;;
31347;SDS011;21711;49.708;18.568;2024-03-02T09:15:50;14.52;;;7.30;;
31347;SDS011;21711;49.708;18.568;2024-03-02T09:18:18;11.70;;;7.45;;
31347;SDS011;21711;49.708;18.568;2024-03-02T09:20:46;18.60;;;8.20;;
31347;SDS011;21711;49.708;18.568;2024-03-02T09:23:13;12.40;;;7.47;;
31347;SDS011;21711;49.708;18.568;2024-03-02T09:25:41;13.68;;;7.78;;
31347;SDS011;21711;49.708;18.568;2024-03-02T09:28:08;17.23;;;7.90;;
31347;SDS011;21711;49.708;18.568;2024-03-02T09:30:36;18.33;;;7.82;;
31347;SDS011;21711;49.708;18.568;2024-03-02T09:33:04;13.02;;;7.38;;
31347;SDS011;21711;49.708;18.568;2024-03-02T09:35:34;14.73;;;7.85;;
31347;SDS011;21711;49.708;18.568;2024-03-02T09:38:02;18.58;;;7.88;;
31347;SDS011;21711;49.708;18.568;2024-03-02T09:40:30;16.95;;;9.15;;
31347;SDS011;21711;49.708;18.568;2024-03-02T09:42:58;15.57;;;8.23;;
31347;SDS011;21711;49.708;18.568;2024-03-02T09:45:27;16.83;;;9.35;;
31347;SDS011;21711;49.708;18.568;2024-03-02T09:47:54;17.27;;;8.82;;
31347;SDS011;21711;49.708;18.568;2024-03-02T09:50:22;18.33;;;8.63;;
31347;SDS011;21711;49.708;18.568;2024-03-02T09:52:49;15.52;;;9.38;;
31347;SDS011;21711;49.708;18.568;2024-03-02T09:55:17;16.27;;;8.80;;
31347;SDS011;21711;49.708;18.568;2024-03-02T09:57:46;16.48;;;8.02;;
31347;SDS011;21711;49.708;18.568;2024-03-02T10:00:15;16.73;;;8.82;;
31347;SDS011;21711;49.708;18.568;2024-03-02T10:02:43;15.07;;;8.15;;
31347;SDS011;21711;49.708;18.568;2024-03-02T10:05:10;17.77;;;9.50;;
31347;SDS011;21711;49.708;18.568;2024-03-02T10:07:38;29.77;;;11.05;;
31347;SDS011;21711;49.708;18.568;2024-03-02T10:10:12;15.32;;;9.00;;
31347;SDS011;21711;49.708;18.568;2024-03-02T10:12:41;18.67;;;9.63;;
31347;SDS011;21711;49.708;18.568;2024-03-02T10:15:09;15.75;;;8.40;;
31347;SDS011;21711;49.708;18.568;2024-03-02T10:17:36;24.15;;;8.90;;
31347;SDS011;21711;49.708;18.568;2024-03-02T10:22:52;11.10;;;6.70;;
31347;SDS011;21711;49.708;18.568;2024-03-02T10:25:32;17.52;;;7.82;;
31347;SDS011;21711;49.708;18.568;2024-03-02T10:28:04;12.27;;;6.82;;
31347;SDS011;21711;49.708;18.568;2024-03-02T10:33:02;9.15;;;3.58;;
31347;SDS011;21711;49.708;18.568;2024-03-02T10:35:32;6.47;;;3.63;;
31347;SDS011;21711;49.708;18.568;2024-03-02T10:38:05;8.98;;;3.42;;
31347;SDS011;21711;49.708;18.568;2024-03-02T10:40:33;5.82;;;2.60;;
31347;SDS011;21711;49.708;18.568;2024-03-02T10:43:01;10.15;;;4.13;;
31347;SDS011;21711;49.708;18.568;2024-03-02T10:45:32;10.88;;;3.97;;
31347;SDS011;21711;49.708;18.568;2024-03-02T10:48:01;7.32;;;2.90;;
31347;SDS011;21711;49.708;18.568;2024-03-02T10:50:32;5.70;;;3.30;;
31347;SDS011;21711;49.708;18.568;2024-03-02T10:53:00;5.28;;;2.90;;
31347;SDS011;21711;49.708;18.568;2024-03-02T10:55:27;6.35;;;3.10;;
31347;SDS011;21711;49.708;18.568;2024-03-02T10:57:56;6.47;;;3.67;;
31347;SDS011;21711;49.708;18.568;2024-03-02T11:00:30;9.23;;;4.15;;
31347;SDS011;21711;49.708;18.568;2024-03-02T11:03:05;6.30;;;3.65;;
31347;SDS011;21711;49.708;18.568;2024-03-02T11:05:38;9.18;;;4.40;;
31347;SDS011;21711;49.708;18.568;2024-03-02T11:08:13;13.52;;;5.22;;
31347;SDS011;21711;49.708;18.568;2024-03-02T11:10:48;8.57;;;4.82;;
31347;SDS011;21711;49.708;18.568;2024-03-02T11:13:22;8.18;;;5.20;;
31347;SDS011;21711;49.708;18.568;2024-03-02T11:16:05;8.90;;;5.40;;
31347;SDS011;21711;49.708;18.568;2024-03-02T11:18:43;12.32;;;6.45;;
31347;SDS011;21711;49.708;18.568;2024-03-02T11:21:12;13.75;;;7.95;;
31347;SDS011;21711;49.708;18.568;2024-03-02T11:23:40;15.63;;;8.40;;
31347;SDS011;21711;49.708;18.568;2024-03-02T11:26:20;14.95;;;8.85;;
31347;SDS011;21711;49.708;18.568;2024-03-02T11:28:49;15.73;;;9.43;;
31347;SDS011;21711;49.708;18.568;2024-03-02T11:31:17;16.75;;;9.68;;
31347;SDS011;21711;49.708;18.568;2024-03-02T11:33:45;18.65;;;9.82;;
31347;SDS011;21711;49.708;18.568;2024-03-02T11:36:12;19.77;;;11.05;;
31347;SDS011;21711;49.708;18.568;2024-03-02T11:38:42;18.25;;;11.13;;
31347;SDS011;21711;49.708;18.568;2024-03-02T11:43:41;22.38;;;11.77;;
31347;SDS011;21711;49.708;18.568;2024-03-02T11:46:11;23.92;;;12.85;;
31347;SDS011;21711;49.708;18.568;2024-03-02T11:48:39;25.70;;;11.82;;
31347;SDS011;21711;49.708;18.568;2024-03-02T11:51:07;20.80;;;12.57;;
31347;SDS011;21711;49.708;18.568;2024-03-02T11:53:35;22.48;;;12.38;;
31347;SDS011;21711;49.708;18.568;2024-03-02T11:56:05;27.38;;;13.85;;
31347;SDS011;21711;49.708;18.568;2024-03-02T11:58:36;25.55;;;12.70;;
31347;SDS011;21711;49.708;18.568;2024-03-02T12:01:05;21.70;;;12.97;;
31347;SDS011;21711;49.708;18.568;2024-03-02T12:03:33;24.88;;;13.57;;
31347;SDS011;21711;49.708;18.568;2024-03-02T12:06:02;23.00;;;12.27;;
31347;SDS011;21711;49.708;18.568;2024-03-02T12:08:30;29.38;;;12.98;;
31347;SDS011;21711;49.708;18.568;2024-03-02T12:10:59;22.55;;;12.57;;
31347;SDS011;21711;49.708;18.568;2024-03-02T12:13:30;24.23;;;13.68;;
31347;SDS011;21711;49.708;18.568;2024-03-02T12:15:58;22.58;;;13.50;;
31347;SDS011;21711;49.708;18.568;2024-03-02T12:18:26;27.17;;;12.90;;
31347;SDS011;21711;49.708;18.568;2024-03-02T12:20:54;25.88;;;13.38;;
31347;SDS011;21711;49.708;18.568;2024-03-02T12:23:25;24.65;;;14.20;;
31347;SDS011;21711;49.708;18.568;2024-03-02T12:25:53;23.55;;;13.93;;
31347;SDS011;21711;49.708;18.568;2024-03-02T12:28:21;23.75;;;14.82;;
31347;SDS011;21711;49.708;18.568;2024-03-02T12:30:48;25.70;;;14.10;;
31347;SDS011;21711;49.708;18.568;2024-03-02T12:33:16;22.65;;;12.50;;
31347;SDS011;21711;49.708;18.568;2024-03-02T12:35:44;21.70;;;12.45;;
31347;SDS011;21711;49.708;18.568;2024-03-02T12:38:11;23.90;;;13.98;;
31347;SDS011;21711;49.708;18.568;2024-03-02T12:40:40;23.20;;;14.55;;
31347;SDS011;21711;49.708;18.568;2024-03-02T12:43:07;21.42;;;13.15;;
31347;SDS011;21711;49.708;18.568;2024-03-02T12:45:35;21.65;;;13.40;;
31347;SDS011;21711;49.708;18.568;2024-03-02T12:48:04;24.15;;;13.48;;
31347;SDS011;21711;49.708;18.568;2024-03-02T12:50:32;25.00;;;13.00;;
31347;SDS011;21711;49.708;18.568;2024-03-02T12:53:00;28.70;;;15.13;;
31347;SDS011;21711;49.708;18.568;2024-03-02T12:55:29;24.95;;;13.65;;
31347;SDS011;21711;49.708;18.568;2024-03-02T12:57:57;23.60;;;12.90;;
31347;SDS011;21711;49.708;18.568;2024-03-02T13:00:26;27.98;;;15.20;;
31347;SDS011;21711;49.708;18.568;2024-03-02T13:02:54;26.17;;;14.38;;
31347;SDS011;21711;49.708;18.568;2024-03-02T13:05:32;28.10;;;13.77;;
31347;SDS011;21711;49.708;18.568;2024-03-02T13:07:59;23.15;;;13.73;;
31347;SDS011;21711;49.708;18.568;2024-03-02T13:10:29;25.30;;;14.47;;
31347;SDS011;21711;49.708;18.568;2024-03-02T13:12:57;23.70;;;14.63;;
31347;SDS011;21711;49.708;18.568;2024-03-02T13:15:28;29.27;;;14.57;;
31347;SDS011;21711;49.708;18.568;2024-03-02T13:17:58;26.63;;;15.40;;
31347;SDS011;21711;49.708;18.568;2024-03-02T13:20:31;25.77;;;14.27;;
31347;SDS011;21711;49.708;18.568;2024-03-02T13:22:59;24.52;;;13.23;;
31347;SDS011;21711;49.708;18.568;2024-03-02T13:25:26;26.60;;;14.25;;
31347;SDS011;21711;49.708;18.568;2024-03-02T13:27:56;21.88;;;13.35;;
31347;SDS011;21711;49.708;18.568;2024-03-02T13:30:24;24.02;;;13.10;;
31347;SDS011;21711;49.708;18.568;2024-03-02T13:32:52;24.15;;;13.38;;
31347;SDS011;21711;49.708;18.568;2024-03-02T13:35:20;23.60;;;13.43;;
31347;SDS011;21711;49.708;18.568;2024-03-02T13:37:48;26.92;;;14.77;;
31347;SDS011;21711;49.708;18.568;2024-03-02T13:40:16;27.85;;;13.85;;
31347;SDS011;21711;49.708;18.568;2024-03-02T13:45:15;24.85;;;13.68;;
31347;SDS011;21711;49.708;18.568;2024-03-02T13:47:44;25.58;;;14.70;;
31347;SDS011;21711;49.708;18.568;2024-03-02T13:50:12;36.47;;;14.80;;
31347;SDS011;21711;49.708;18.568;2024-03-02T13:52:39;32.22;;;15.00;;
31347;SDS011;21711;49.708;18.568;2024-03-02T13:55:07;28.77;;;16.58;;
31347;SDS011;21711;49.708;18.568;2024-03-02T13:57:34;32.05;;;16.63;;
31347;SDS011;21711;49.708;18.568;2024-03-02T14:00:02;31.67;;;17.23;;
31347;SDS011;21711;49.708;18.568;2024-03-02T14:02:39;27.98;;;16.13;;
31347;SDS011;21711;49.708;18.568;2024-03-02T14:05:07;27.65;;;16.00;;
31347;SDS011;21711;49.708;18.568;2024-03-02T14:07:38;26.77;;;14.52;;
31347;SDS011;21711;49.708;18.568;2024-03-02T14:10:05;31.67;;;15.15;;
31347;SDS011;21711;49.708;18.568;2024-03-02T14:12:33;25.02;;;13.90;;
31347;SDS011;21711;49.708;18.568;2024-03-02T14:15:01;24.30;;;14.75;;
31347;SDS011;21711;49.708;18.568;2024-03-02T14:17:31;25.35;;;14.50;;
31347;SDS011;21711;49.708;18.568;2024-03-02T14:19:59;25.77;;;14.48;;
31347;SDS011;21711;49.708;18.568;2024-03-02T14:22:26;23.23;;;14.65;;
31347;SDS011;21711;49.708;18.568;2024-03-02T14:24:54;26.63;;;14.02;;
31347;SDS011;21711;49.708;18.568;2024-03-02T14:27:21;24.00;;;14.43;;
31347;SDS011;21711;49.708;18.568;2024-03-02T14:30:09;23.50;;;14.02;;
31347;SDS011;21711;49.708;18.568;2024-03-02T14:32:37;22.50;;;12.98;;
31347;SDS011;21711;49.708;18.568;2024-03-02T14:35:04;21.85;;;13.25;;
31347;SDS011;21711;49.708;18.568;2024-03-02T14:37:32;21.63;;;12.05;;
31347;SDS011;21711;49.708;18.568;2024-03-02T14:40:00;23.40;;;13.20;;
31347;SDS011;21711;49.708;18.568;2024-03-02T14:42:27;25.95;;;14.05;;
31347;SDS011;21711;49.708;18.568;2024-03-02T14:44:58;20.88;;;12.60;;
31347;SDS011;21711;49.708;18.568;2024-03-02T14:47:25;20.30;;;11.80;;
31347;SDS011;21711;49.708;18.568;2024-03-02T14:49:53;21.13;;;12.45;;
31347;SDS011;21711;49.708;18.568;2024-03-02T14:52:20;24.13;;;13.30;;